sensor_id;sensor_type;location;lat;lon;timestamp;P1;durP1;ratioP1;P2;durP2;ratioP2
7693;SDS011;3889;48.162;11.510;2022-12-05T00:01:17;19.63;;;17.13;;
7693;SDS011;3889;48.162;11.510;2022-12-05T00:03:48;20.00;;;17.63;;
7693;SDS011;3889;48.162;11.510;2022-12-05T00:06:17;19.90;;;17.70;;
7693;SDS011;3889;48.162;11.510;2022-12-05T00:08:47;19.77;;;17.05;;
7693;SDS011;3889;48.162;11.510;2022-12-05T00:11:16;21.02;;;17.73;;
7693;SDS011;3889;48.162;11.510;2022-12-05T00:13:46;20.10;;;17.42;;
7693;SDS011;3889;48.162;11.510;2022-12-05T00:16:15;20.60;;;17.53;;
7693;SDS011;3889;48.162;11.510;2022-12-05T00:18:45;22.23;;;18.77;;
7693;SDS011;3889;48.162;11.510;2022-12-05T00:21:14;20.73;;;17.27;;
7693;SDS011;3889;48.162;11.510;2022-12-05T00:23:50;19.77;;;17.65;;
7693;SDS011;3889;48.162;11.510;2022-12-05T00:26:19;21.33;;;18.38;;
7693;SDS011;3889;48.162;11.510;2022-12-05T00:28:48;21.30;;;18.08;;
7693;SDS011;3889;48.162;11.510;2022-12-05T00:31:17;20.48;;;18.10;;
7693;SDS011;3889;48.162;11.510;2022-12-05T00:33:46;20.23;;;17.85;;
7693;SDS011;3889;48.162;11.510;2022-12-05T00:36:16;20.13;;;17.42;;
7693;SDS011;3889;48.162;11.510;2022-12-05T00:38:45;21.10;;;18.17;;
7693;SDS011;3889;48.162;11.510;2022-12-05T00:41:15;20.20;;;17.93;;
7693;SDS011;3889;48.162;11.510;2022-12-05T00:43:45;20.50;;;17.88;;
7693;SDS011;3889;48.162;11.510;2022-12-05T00:46:14;20.30;;;17.52;;
7693;SDS011;3889;48.162;11.510;2022-12-05T00:48:43;21.35;;;18.63;;
7693;SDS011;3889;48.162;11.510;2022-12-05T00:51:13;21.00;;;18.13;;
7693;SDS011;3889;48.162;11.510;2022-12-05T00:53:42;21.00;;;18.33;;
7693;SDS011;3889;48.162;11.510;2022-12-05T00:56:12;20.92;;;18.52;;
7693;SDS011;3889;48.162;11.510;2022-12-05T00:58:43;20.40;;;18.20;;
7693;SDS011;3889;48.162;11.510;2022-12-05T01:01:12;22.00;;;18.13;;
7693;SDS011;3889;48.162;11.510;2022-12-05T01:03:43;21.90;;;18.30;;
7693;SDS011;3889;48.162;11.510;2022-12-05T01:06:12;23.17;;;19.30;;
7693;SDS011;3889;48.162;11.510;2022-12-05T01:08:41;20.45;;;18.23;;
7693;SDS011;3889;48.162;11.510;2022-12-05T01:11:09;22.65;;;19.10;;
7693;SDS011;3889;48.162;11.510;2022-12-05T01:13:39;23.20;;;19.10;;
7693;SDS011;3889;48.162;11.510;2022-12-05T01:16:11;21.75;;;18.75;;
7693;SDS011;3889;48.162;11.510;2022-12-05T01:18:40;21.30;;;18.63;;
7693;SDS011;3889;48.162;11.510;2022-12-05T01:21:08;22.80;;;19.27;;
7693;SDS011;3889;48.162;11.510;2022-12-05T01:23:36;22.58;;;19.83;;
7693;SDS011;3889;48.162;11.510;2022-12-05T01:26:05;22.30;;;18.50;;
7693;SDS011;3889;48.162;11.510;2022-12-05T01:28:36;22.85;;;19.17;;
7693;SDS011;3889;48.162;11.510;2022-12-05T01:31:06;22.83;;;19.53;;
7693;SDS011;3889;48.162;11.510;2022-12-05T01:33:36;23.23;;;19.33;;
7693;SDS011;3889;48.162;11.510;2022-12-05T01:36:04;23.77;;;20.25;;
7693;SDS011;3889;48.162;11.510;2022-12-05T01:38:37;23.85;;;20.40;;
7693;SDS011;3889;48.162;11.510;2022-12-05T01:41:06;21.35;;;19.05;;
7693;SDS011;3889;48.162;11.510;2022-12-05T01:43:51;24.30;;;20.63;;
7693;SDS011;3889;48.162;11.510;2022-12-05T01:46:26;23.38;;;20.40;;
7693;SDS011;3889;48.162;11.510;2022-12-05T01:48:56;23.60;;;20.98;;
7693;SDS011;3889;48.162;11.510;2022-12-05T01:51:28;23.00;;;20.00;;
7693;SDS011;3889;48.162;11.510;2022-12-05T01:53:57;22.60;;;20.20;;
7693;SDS011;3889;48.162;11.510;2022-12-05T01:56:25;22.42;;;19.52;;
7693;SDS011;3889;48.162;11.510;2022-12-05T01:58:53;21.10;;;18.90;;
7693;SDS011;3889;48.162;11.510;2022-12-05T02:01:22;21.13;;;18.30;;
7693;SDS011;3889;48.162;11.510;2022-12-05T02:03:53;21.10;;;18.73;;
7693;SDS011;3889;48.162;11.510;2022-12-05T02:06:24;22.25;;;19.15;;
7693;SDS011;3889;48.162;11.510;2022-12-05T02:08:53;21.70;;;19.40;;
7693;SDS011;3889;48.162;11.510;2022-12-05T02:11:22;21.75;;;19.35;;
7693;SDS011;3889;48.162;11.510;2022-12-05T02:14:05;22.08;;;19.17;;
7693;SDS011;3889;48.162;11.510;2022-12-05T02:16:54;20.92;;;18.73;;
7693;SDS011;3889;48.162;11.510;2022-12-05T02:19:37;21.80;;;19.38;;
7693;SDS011;3889;48.162;11.510;2022-12-05T02:25:49;22.77;;;20.13;;
7693;SDS011;3889;48.162;11.510;2022-12-05T02:28:42;22.90;;;19.50;;
7693;SDS011;3889;48.162;11.510;2022-12-05T02:31:25;21.58;;;18.67;;
7693;SDS011;3889;48.162;11.510;2022-12-05T02:34:02;22.30;;;19.23;;
7693;SDS011;3889;48.162;11.510;2022-12-05T02:36:38;22.20;;;19.08;;
7693;SDS011;3889;48.162;11.510;2022-12-05T02:39:12;21.35;;;18.70;;
7693;SDS011;3889;48.162;11.510;2022-12-05T02:41:46;21.33;;;19.02;;
7693;SDS011;3889;48.162;11.510;2022-12-05T02:44:17;22.25;;;19.10;;
7693;SDS011;3889;48.162;11.510;2022-12-05T02:46:50;22.60;;;18.70;;
7693;SDS011;3889;48.162;11.510;2022-12-05T02:49:21;22.92;;;19.60;;
7693;SDS011;3889;48.162;11.510;2022-12-05T02:51:52;23.97;;;19.37;;
7693;SDS011;3889;48.162;11.510;2022-12-05T02:54:25;22.73;;;19.50;;
7693;SDS011;3889;48.162;11.510;2022-12-05T02:56:55;23.75;;;20.25;;
7693;SDS011;3889;48.162;11.510;2022-12-05T02:59:25;24.30;;;19.73;;
7693;SDS011;3889;48.162;11.510;2022-12-05T03:01:54;23.67;;;19.40;;
7693;SDS011;3889;48.162;11.510;2022-12-05T03:04:23;24.48;;;20.17;;
7693;SDS011;3889;48.162;11.510;2022-12-05T03:06:52;24.65;;;21.05;;
7693;SDS011;3889;48.162;11.510;2022-12-05T03:09:26;26.45;;;20.98;;
7693;SDS011;3889;48.162;11.510;2022-12-05T03:12:01;25.23;;;20.30;;
7693;SDS011;3889;48.162;11.510;2022-12-05T03:14:34;26.73;;;21.40;;
7693;SDS011;3889;48.162;11.510;2022-12-05T03:17:07;26.63;;;20.95;;
7693;SDS011;3889;48.162;11.510;2022-12-05T03:19:40;25.02;;;21.08;;
7693;SDS011;3889;48.162;11.510;2022-12-05T03:22:16;25.40;;;20.67;;
7693;SDS011;3889;48.162;11.510;2022-12-05T03:24:48;25.25;;;20.20;;
7693;SDS011;3889;48.162;11.510;2022-12-05T03:27:19;22.70;;;20.20;;
7693;SDS011;3889;48.162;11.510;2022-12-05T03:29:53;24.20;;;20.40;;
7693;SDS011;3889;48.162;11.510;2022-12-05T03:32:25;24.23;;;20.25;;
7693;SDS011;3889;48.162;11.510;2022-12-05T03:35:02;24.42;;;20.85;;
7693;SDS011;3889;48.162;11.510;2022-12-05T03:37:37;27.00;;;21.80;;
7693;SDS011;3889;48.162;11.510;2022-12-05T03:40:13;23.33;;;20.52;;
7693;SDS011;3889;48.162;11.510;2022-12-05T03:42:55;25.33;;;20.65;;
7693;SDS011;3889;48.162;11.510;2022-12-05T03:45:30;24.83;;;20.97;;
7693;SDS011;3889;48.162;11.510;2022-12-05T03:48:05;23.20;;;19.58;;
7693;SDS011;3889;48.162;11.510;2022-12-05T03:50:40;20.33;;;18.23;;
7693;SDS011;3889;48.162;11.510;2022-12-05T03:53:13;20.35;;;18.15;;
7693;SDS011;3889;48.162;11.510;2022-12-05T03:55:45;20.13;;;17.93;;
7693;SDS011;3889;48.162;11.510;2022-12-05T03:58:18;21.33;;;18.45;;
7693;SDS011;3889;48.162;11.510;2022-12-05T04:00:52;20.15;;;17.38;;
7693;SDS011;3889;48.162;11.510;2022-12-05T04:03:25;21.07;;;18.17;;
7693;SDS011;3889;48.162;11.510;2022-12-05T04:06:05;21.90;;;18.73;;
7693;SDS011;3889;48.162;11.510;2022-12-05T04:08:39;20.63;;;18.42;;
7693;SDS011;3889;48.162;11.510;2022-12-05T04:11:12;21.17;;;18.20;;
7693;SDS011;3889;48.162;11.510;2022-12-05T04:13:43;21.07;;;18.73;;
7693;SDS011;3889;48.162;11.510;2022-12-05T04:16:16;20.50;;;18.30;;
7693;SDS011;3889;48.162;11.510;2022-12-05T04:19:07;19.83;;;17.40;;
7693;SDS011;3889;48.162;11.510;2022-12-05T04:21:42;21.27;;;18.87;;
7693;SDS011;3889;48.162;11.510;2022-12-05T04:24:12;19.70;;;17.60;;
7693;SDS011;3889;48.162;11.510;2022-12-05T04:27:07;20.23;;;17.90;;
7693;SDS011;3889;48.162;11.510;2022-12-05T04:29:41;21.25;;;17.70;;
7693;SDS011;3889;48.162;11.510;2022-12-05T04:32:12;19.98;;;17.75;;
7693;SDS011;3889;48.162;11.510;2022-12-05T04:34:42;19.65;;;17.52;;
7693;SDS011;3889;48.162;11.510;2022-12-05T04:37:14;19.88;;;17.67;;
7693;SDS011;3889;48.162;11.510;2022-12-05T04:39:49;20.17;;;17.90;;
7693;SDS011;3889;48.162;11.510;2022-12-05T04:42:22;20.48;;;17.83;;
7693;SDS011;3889;48.162;11.510;2022-12-05T04:44:53;21.20;;;17.55;;
7693;SDS011;3889;48.162;11.510;2022-12-05T04:47:26;21.07;;;18.00;;
7693;SDS011;3889;48.162;11.510;2022-12-05T04:49:58;22.00;;;18.38;;
7693;SDS011;3889;48.162;11.510;2022-12-05T04:52:28;21.85;;;18.58;;
7693;SDS011;3889;48.162;11.510;2022-12-05T04:54:58;22.23;;;18.77;;
7693;SDS011;3889;48.162;11.510;2022-12-05T04:57:32;22.60;;;18.73;;
7693;SDS011;3889;48.162;11.510;2022-12-05T05:00:03;23.75;;;19.40;;
7693;SDS011;3889;48.162;11.510;2022-12-05T05:02:41;22.73;;;19.43;;
7693;SDS011;3889;48.162;11.510;2022-12-05T05:05:15;22.08;;;18.33;;
7693;SDS011;3889;48.162;11.510;2022-12-05T05:07:45;23.15;;;18.50;;
7693;SDS011;3889;48.162;11.510;2022-12-05T05:10:15;24.40;;;18.50;;
7693;SDS011;3889;48.162;11.510;2022-12-05T05:12:47;24.70;;;19.70;;
7693;SDS011;3889;48.162;11.510;2022-12-05T05:15:15;22.75;;;19.42;;
7693;SDS011;3889;48.162;11.510;2022-12-05T05:17:43;24.45;;;19.83;;
7693;SDS011;3889;48.162;11.510;2022-12-05T05:20:10;24.65;;;19.80;;
7693;SDS011;3889;48.162;11.510;2022-12-05T05:22:53;24.63;;;20.45;;
7693;SDS011;3889;48.162;11.510;2022-12-05T05:25:23;24.17;;;19.77;;
7693;SDS011;3889;48.162;11.510;2022-12-05T05:27:52;24.00;;;19.33;;
7693;SDS011;3889;48.162;11.510;2022-12-05T05:30:21;23.57;;;19.37;;
7693;SDS011;3889;48.162;11.510;2022-12-05T05:32:50;23.20;;;19.35;;
7693;SDS011;3889;48.162;11.510;2022-12-05T05:35:19;21.73;;;18.88;;
7693;SDS011;3889;48.162;11.510;2022-12-05T05:37:47;23.63;;;19.25;;
7693;SDS011;3889;48.162;11.510;2022-12-05T05:40:17;23.80;;;20.00;;
7693;SDS011;3889;48.162;11.510;2022-12-05T05:42:45;24.23;;;19.88;;
7693;SDS011;3889;48.162;11.510;2022-12-05T05:45:15;22.63;;;18.95;;
7693;SDS011;3889;48.162;11.510;2022-12-05T05:47:43;24.58;;;20.25;;
7693;SDS011;3889;48.162;11.510;2022-12-05T05:50:11;25.08;;;19.67;;
7693;SDS011;3889;48.162;11.510;2022-12-05T05:52:46;24.40;;;19.80;;
7693;SDS011;3889;48.162;11.510;2022-12-05T05:55:14;23.93;;;19.03;;
7693;SDS011;3889;48.162;11.510;2022-12-05T05:57:44;23.77;;;19.02;;
7693;SDS011;3889;48.162;11.510;2022-12-05T06:00:12;24.27;;;19.67;;
7693;SDS011;3889;48.162;11.510;2022-12-05T06:02:41;23.88;;;19.17;;
7693;SDS011;3889;48.162;11.510;2022-12-05T06:05:09;22.50;;;18.42;;
7693;SDS011;3889;48.162;11.510;2022-12-05T06:07:37;23.77;;;19.48;;
7693;SDS011;3889;48.162;11.510;2022-12-05T06:10:05;25.85;;;20.27;;
7693;SDS011;3889;48.162;11.510;2022-12-05T06:12:35;23.15;;;19.38;;
7693;SDS011;3889;48.162;11.510;2022-12-05T06:15:03;21.58;;;18.33;;
7693;SDS011;3889;48.162;11.510;2022-12-05T06:17:31;24.23;;;19.50;;
7693;SDS011;3889;48.162;11.510;2022-12-05T06:19:59;24.33;;;20.10;;
7693;SDS011;3889;48.162;11.510;2022-12-05T06:22:28;22.90;;;19.23;;
7693;SDS011;3889;48.162;11.510;2022-12-05T06:24:56;23.17;;;19.48;;
7693;SDS011;3889;48.162;11.510;2022-12-05T06:27:24;27.55;;;20.98;;
7693;SDS011;3889;48.162;11.510;2022-12-05T06:29:53;23.45;;;19.92;;
7693;SDS011;3889;48.162;11.510;2022-12-05T06:32:22;25.58;;;20.42;;
7693;SDS011;3889;48.162;11.510;2022-12-05T06:34:50;24.08;;;19.73;;
7693;SDS011;3889;48.162;11.510;2022-12-05T06:37:17;22.55;;;20.13;;
7693;SDS011;3889;48.162;11.510;2022-12-05T06:39:45;26.58;;;20.70;;
7693;SDS011;3889;48.162;11.510;2022-12-05T06:42:13;25.08;;;19.52;;
7693;SDS011;3889;48.162;11.510;2022-12-05T06:44:41;23.92;;;19.67;;
7693;SDS011;3889;48.162;11.510;2022-12-05T06:47:10;25.17;;;19.88;;
7693;SDS011;3889;48.162;11.510;2022-12-05T06:49:38;23.55;;;19.73;;
7693;SDS011;3889;48.162;11.510;2022-12-05T06:52:05;24.92;;;20.55;;
7693;SDS011;3889;48.162;11.510;2022-12-05T06:54:34;24.30;;;19.73;;
7693;SDS011;3889;48.162;11.510;2022-12-05T06:57:02;23.45;;;19.55;;
7693;SDS011;3889;48.162;11.510;2022-12-05T06:59:30;26.25;;;19.92;;
7693;SDS011;3889;48.162;11.510;2022-12-05T07:01:57;24.85;;;19.77;;
7693;SDS011;3889;48.162;11.510;2022-12-05T07:04:27;25.92;;;19.35;;
7693;SDS011;3889;48.162;11.510;2022-12-05T07:06:54;25.58;;;19.73;;
7693;SDS011;3889;48.162;11.510;2022-12-05T07:09:23;25.30;;;19.77;;
7693;SDS011;3889;48.162;11.510;2022-12-05T07:12:11;22.92;;;17.98;;
7693;SDS011;3889;48.162;11.510;2022-12-05T07:14:40;24.83;;;19.63;;
7693;SDS011;3889;48.162;11.510;2022-12-05T07:17:14;25.38;;;20.60;;
7693;SDS011;3889;48.162;11.510;2022-12-05T07:19:43;23.33;;;18.98;;
7693;SDS011;3889;48.162;11.510;2022-12-05T07:22:11;24.15;;;19.58;;
7693;SDS011;3889;48.162;11.510;2022-12-05T07:24:41;23.52;;;19.00;;
7693;SDS011;3889;48.162;11.510;2022-12-05T07:27:09;23.33;;;18.52;;
7693;SDS011;3889;48.162;11.510;2022-12-05T07:29:37;20.35;;;18.05;;
7693;SDS011;3889;48.162;11.510;2022-12-05T07:32:05;22.17;;;18.80;;
7693;SDS011;3889;48.162;11.510;2022-12-05T07:34:33;21.27;;;18.33;;
7693;SDS011;3889;48.162;11.510;2022-12-05T07:37:03;22.27;;;18.13;;
7693;SDS011;3889;48.162;11.510;2022-12-05T07:39:30;24.17;;;19.25;;
7693;SDS011;3889;48.162;11.510;2022-12-05T07:41:58;20.33;;;17.83;;
7693;SDS011;3889;48.162;11.510;2022-12-05T07:44:26;21.50;;;18.60;;
7693;SDS011;3889;48.162;11.510;2022-12-05T07:46:54;22.60;;;19.10;;
7693;SDS011;3889;48.162;11.510;2022-12-05T07:49:21;21.30;;;18.05;;
7693;SDS011;3889;48.162;11.510;2022-12-05T07:51:49;22.67;;;18.37;;
7693;SDS011;3889;48.162;11.510;2022-12-05T07:54:19;19.38;;;17.17;;
7693;SDS011;3889;48.162;11.510;2022-12-05T07:56:47;20.80;;;17.25;;
7693;SDS011;3889;48.162;11.510;2022-12-05T07:59:15;20.80;;;17.95;;
7693;SDS011;3889;48.162;11.510;2022-12-05T08:01:42;19.83;;;17.30;;
7693;SDS011;3889;48.162;11.510;2022-12-05T08:04:10;20.83;;;18.45;;
7693;SDS011;3889;48.162;11.510;2022-12-05T08:06:41;19.55;;;16.70;;
7693;SDS011;3889;48.162;11.510;2022-12-05T08:09:09;22.48;;;18.63;;
7693;SDS011;3889;48.162;11.510;2022-12-05T08:11:38;23.03;;;18.20;;
7693;SDS011;3889;48.162;11.510;2022-12-05T08:14:07;20.63;;;17.13;;
7693;SDS011;3889;48.162;11.510;2022-12-05T08:16:35;19.00;;;16.98;;
7693;SDS011;3889;48.162;11.510;2022-12-05T08:19:03;18.52;;;16.35;;
7693;SDS011;3889;48.162;11.510;2022-12-05T08:21:33;19.40;;;16.30;;
7693;SDS011;3889;48.162;11.510;2022-12-05T08:24:02;18.38;;;16.02;;
7693;SDS011;3889;48.162;11.510;2022-12-05T08:26:32;18.55;;;16.50;;
7693;SDS011;3889;48.162;11.510;2022-12-05T08:29:02;18.93;;;16.93;;
7693;SDS011;3889;48.162;11.510;2022-12-05T08:31:32;21.13;;;17.70;;
7693;SDS011;3889;48.162;11.510;2022-12-05T08:34:02;19.50;;;16.85;;
7693;SDS011;3889;48.162;11.510;2022-12-05T08:36:30;20.33;;;17.80;;
7693;SDS011;3889;48.162;11.510;2022-12-05T08:38:59;20.50;;;17.27;;
7693;SDS011;3889;48.162;11.510;2022-12-05T08:41:27;19.55;;;17.45;;
7693;SDS011;3889;48.162;11.510;2022-12-05T08:43:56;19.55;;;16.88;;
7693;SDS011;3889;48.162;11.510;2022-12-05T08:46:26;20.55;;;18.02;;
7693;SDS011;3889;48.162;11.510;2022-12-05T08:48:54;21.13;;;18.03;;
7693;SDS011;3889;48.162;11.510;2022-12-05T08:51:22;20.33;;;17.83;;
7693;SDS011;3889;48.162;11.510;2022-12-05T08:53:50;21.13;;;17.20;;
7693;SDS011;3889;48.162;11.510;2022-12-05T08:56:17;20.50;;;17.92;;
7693;SDS011;3889;48.162;11.510;2022-12-05T08:58:52;22.00;;;18.27;;
7693;SDS011;3889;48.162;11.510;2022-12-05T09:01:27;21.00;;;18.50;;
7693;SDS011;3889;48.162;11.510;2022-12-05T09:03:57;19.38;;;16.83;;
7693;SDS011;3889;48.162;11.510;2022-12-05T09:06:26;22.08;;;18.63;;
7693;SDS011;3889;48.162;11.510;2022-12-05T09:08:56;20.77;;;18.02;;
7693;SDS011;3889;48.162;11.510;2022-12-05T09:11:26;19.02;;;17.02;;
7693;SDS011;3889;48.162;11.510;2022-12-05T09:13:55;18.87;;;16.87;;
7693;SDS011;3889;48.162;11.510;2022-12-05T09:16:25;17.88;;;15.98;;
7693;SDS011;3889;48.162;11.510;2022-12-05T09:19:02;18.35;;;16.27;;
7693;SDS011;3889;48.162;11.510;2022-12-05T09:21:31;19.23;;;17.13;;
7693;SDS011;3889;48.162;11.510;2022-12-05T09:23:59;18.85;;;16.95;;
7693;SDS011;3889;48.162;11.510;2022-12-05T09:26:27;19.60;;;17.50;;
7693;SDS011;3889;48.162;11.510;2022-12-05T09:28:56;18.80;;;16.85;;
7693;SDS011;3889;48.162;11.510;2022-12-05T09:31:25;18.35;;;16.25;;
7693;SDS011;3889;48.162;11.510;2022-12-05T09:33:54;17.90;;;15.93;;
7693;SDS011;3889;48.162;11.510;2022-12-05T09:36:24;17.65;;;15.75;;
7693;SDS011;3889;48.162;11.510;2022-12-05T09:38:53;18.55;;;16.50;;
7693;SDS011;3889;48.162;11.510;2022-12-05T09:41:30;18.42;;;16.52;;
7693;SDS011;3889;48.162;11.510;2022-12-05T09:44:41;20.33;;;17.63;;
7693;SDS011;3889;48.162;11.510;2022-12-05T09:47:27;19.35;;;16.77;;
7693;SDS011;3889;48.162;11.510;2022-12-05T09:50:03;18.90;;;16.90;;
7693;SDS011;3889;48.162;11.510;2022-12-05T09:52:44;19.40;;;17.15;;
7693;SDS011;3889;48.162;11.510;2022-12-05T09:55:21;18.33;;;16.40;;
7693;SDS011;3889;48.162;11.510;2022-12-05T09:57:50;18.42;;;16.60;;
7693;SDS011;3889;48.162;11.510;2022-12-05T10:00:20;19.17;;;17.17;;
7693;SDS011;3889;48.162;11.510;2022-12-05T10:02:51;18.40;;;16.52;;
7693;SDS011;3889;48.162;11.510;2022-12-05T10:05:26;20.23;;;17.50;;
7693;SDS011;3889;48.162;11.510;2022-12-05T10:08:01;19.70;;;17.60;;
7693;SDS011;3889;48.162;11.510;2022-12-05T10:10:39;19.50;;;17.48;;
7693;SDS011;3889;48.162;11.510;2022-12-05T10:13:15;19.20;;;17.20;;
7693;SDS011;3889;48.162;11.510;2022-12-05T10:15:53;19.67;;;17.65;;
7693;SDS011;3889;48.162;11.510;2022-12-05T10:18:27;19.60;;;17.42;;
7693;SDS011;3889;48.162;11.510;2022-12-05T10:21:01;19.73;;;17.67;;
7693;SDS011;3889;48.162;11.510;2022-12-05T10:23:34;18.98;;;17.13;;
7693;SDS011;3889;48.162;11.510;2022-12-05T10:26:23;19.35;;;17.27;;
7693;SDS011;3889;48.162;11.510;2022-12-05T10:28:55;19.53;;;17.30;;
7693;SDS011;3889;48.162;11.510;2022-12-05T10:31:28;18.73;;;16.77;;
7693;SDS011;3889;48.162;11.510;2022-12-05T10:34:01;19.08;;;17.08;;
7693;SDS011;3889;48.162;11.510;2022-12-05T10:36:33;19.02;;;17.02;;
7693;SDS011;3889;48.162;11.510;2022-12-05T10:39:01;19.15;;;17.25;;
7693;SDS011;3889;48.162;11.510;2022-12-05T10:41:36;19.02;;;17.02;;
7693;SDS011;3889;48.162;11.510;2022-12-05T10:44:04;18.30;;;16.38;;
7693;SDS011;3889;48.162;11.510;2022-12-05T10:46:32;17.60;;;15.70;;
7693;SDS011;3889;48.162;11.510;2022-12-05T10:49:00;18.00;;;16.20;;
7693;SDS011;3889;48.162;11.510;2022-12-05T10:51:28;17.92;;;16.08;;
7693;SDS011;3889;48.162;11.510;2022-12-05T10:54:07;17.05;;;15.23;;
7693;SDS011;3889;48.162;11.510;2022-12-05T10:56:41;17.55;;;15.75;;
7693;SDS011;3889;48.162;11.510;2022-12-05T10:59:11;17.42;;;15.63;;
7693;SDS011;3889;48.162;11.510;2022-12-05T11:01:46;17.30;;;15.60;;
7693;SDS011;3889;48.162;11.510;2022-12-05T11:04:20;16.85;;;15.13;;
7693;SDS011;3889;48.162;11.510;2022-12-05T11:06:52;16.45;;;14.75;;
7693;SDS011;3889;48.162;11.510;2022-12-05T11:09:24;16.65;;;15.05;;
7693;SDS011;3889;48.162;11.510;2022-12-05T11:12:13;16.30;;;14.65;;
7693;SDS011;3889;48.162;11.510;2022-12-05T11:14:52;16.25;;;14.65;;
7693;SDS011;3889;48.162;11.510;2022-12-05T11:17:31;15.70;;;14.20;;
7693;SDS011;3889;48.162;11.510;2022-12-05T11:20:01;16.42;;;14.82;;
7693;SDS011;3889;48.162;11.510;2022-12-05T11:22:31;16.70;;;15.00;;
7693;SDS011;3889;48.162;11.510;2022-12-05T11:25:19;16.73;;;15.02;;
7693;SDS011;3889;48.162;11.510;2022-12-05T11:27:52;16.00;;;14.40;;
7693;SDS011;3889;48.162;11.510;2022-12-05T11:30:27;15.53;;;14.03;;
7693;SDS011;3889;48.162;11.510;2022-12-05T11:33:09;16.08;;;14.45;;
7693;SDS011;3889;48.162;11.510;2022-12-05T11:35:38;16.35;;;14.73;;
7693;SDS011;3889;48.162;11.510;2022-12-05T11:38:08;16.60;;;15.00;;
7693;SDS011;3889;48.162;11.510;2022-12-05T11:40:40;16.70;;;14.90;;
7693;SDS011;3889;48.162;11.510;2022-12-05T11:43:19;16.47;;;14.87;;
7693;SDS011;3889;48.162;11.510;2022-12-05T11:46:08;16.38;;;14.68;;
7693;SDS011;3889;48.162;11.510;2022-12-05T11:48:56;16.23;;;14.63;;
7693;SDS011;3889;48.162;11.510;2022-12-05T11:51:34;16.33;;;14.63;;
7693;SDS011;3889;48.162;11.510;2022-12-05T11:54:11;16.02;;;14.32;;
7693;SDS011;3889;48.162;11.510;2022-12-05T11:57:35;15.82;;;14.23;;
7693;SDS011;3889;48.162;11.510;2022-12-05T12:00:18;15.32;;;13.73;;
7693;SDS011;3889;48.162;11.510;2022-12-05T12:02:54;14.85;;;13.35;;
7693;SDS011;3889;48.162;11.510;2022-12-05T12:05:47;14.40;;;13.00;;
7693;SDS011;3889;48.162;11.510;2022-12-05T12:08:22;14.10;;;12.80;;
7693;SDS011;3889;48.162;11.510;2022-12-05T12:10:54;13.55;;;12.15;;
7693;SDS011;3889;48.162;11.510;2022-12-05T12:13:43;14.32;;;12.93;;
7693;SDS011;3889;48.162;11.510;2022-12-05T12:16:25;12.82;;;11.60;;
7693;SDS011;3889;48.162;11.510;2022-12-05T12:19:08;13.40;;;12.10;;
7693;SDS011;3889;48.162;11.510;2022-12-05T12:21:50;13.07;;;11.70;;
7693;SDS011;3889;48.162;11.510;2022-12-05T12:24:32;13.07;;;11.73;;
7693;SDS011;3889;48.162;11.510;2022-12-05T12:27:12;14.00;;;12.30;;
7693;SDS011;3889;48.162;11.510;2022-12-05T12:29:57;12.93;;;11.68;;
7693;SDS011;3889;48.162;11.510;2022-12-05T12:32:33;13.35;;;11.95;;
7693;SDS011;3889;48.162;11.510;2022-12-05T12:35:28;12.85;;;11.57;;
7693;SDS011;3889;48.162;11.510;2022-12-05T12:38:02;12.10;;;10.93;;
7693;SDS011;3889;48.162;11.510;2022-12-05T12:40:48;11.10;;;10.05;;
7693;SDS011;3889;48.162;11.510;2022-12-05T12:43:30;11.57;;;10.48;;
7693;SDS011;3889;48.162;11.510;2022-12-05T12:46:28;12.48;;;11.27;;
7693;SDS011;3889;48.162;11.510;2022-12-05T12:49:18;12.43;;;11.15;;
7693;SDS011;3889;48.162;11.510;2022-12-05T12:52:09;11.33;;;10.23;;
7693;SDS011;3889;48.162;11.510;2022-12-05T12:54:42;10.75;;;9.65;;
7693;SDS011;3889;48.162;11.510;2022-12-05T12:57:31;9.65;;;8.65;;
7693;SDS011;3889;48.162;11.510;2022-12-05T13:00:11;9.27;;;8.37;;
7693;SDS011;3889;48.162;11.510;2022-12-05T13:02:50;9.65;;;8.65;;
7693;SDS011;3889;48.162;11.510;2022-12-05T13:05:25;9.98;;;8.98;;
7693;SDS011;3889;48.162;11.510;2022-12-05T13:08:00;9.15;;;8.05;;
7693;SDS011;3889;48.162;11.510;2022-12-05T13:10:32;9.35;;;8.02;;
7693;SDS011;3889;48.162;11.510;2022-12-05T13:13:04;8.00;;;7.30;;
7693;SDS011;3889;48.162;11.510;2022-12-05T13:15:34;7.72;;;6.93;;
7693;SDS011;3889;48.162;11.510;2022-12-05T13:18:12;7.40;;;6.70;;
7693;SDS011;3889;48.162;11.510;2022-12-05T13:20:43;8.02;;;7.22;;
7693;SDS011;3889;48.162;11.510;2022-12-05T13:23:15;7.32;;;6.63;;
7693;SDS011;3889;48.162;11.510;2022-12-05T13:25:46;6.50;;;5.90;;
7693;SDS011;3889;48.162;11.510;2022-12-05T13:28:21;7.43;;;6.63;;
7693;SDS011;3889;48.162;11.510;2022-12-05T13:30:53;7.00;;;6.30;;
7693;SDS011;3889;48.162;11.510;2022-12-05T13:33:29;7.50;;;6.70;;
7693;SDS011;3889;48.162;11.510;2022-12-05T13:36:06;6.60;;;6.00;;
7693;SDS011;3889;48.162;11.510;2022-12-05T13:38:54;7.07;;;6.13;;
7693;SDS011;3889;48.162;11.510;2022-12-05T13:41:42;6.05;;;5.47;;
7693;SDS011;3889;48.162;11.510;2022-12-05T13:44:30;5.10;;;4.60;;
7693;SDS011;3889;48.162;11.510;2022-12-05T13:47:02;4.90;;;4.50;;
7693;SDS011;3889;48.162;11.510;2022-12-05T13:49:37;4.70;;;4.30;;
7693;SDS011;3889;48.162;11.510;2022-12-05T13:52:11;5.00;;;4.50;;
7693;SDS011;3889;48.162;11.510;2022-12-05T13:54:42;4.32;;;3.92;;
7693;SDS011;3889;48.162;11.510;2022-12-05T14:00:21;3.90;;;3.60;;
7693;SDS011;3889;48.162;11.510;2022-12-05T14:02:55;4.55;;;4.15;;
7693;SDS011;3889;48.162;11.510;2022-12-05T14:05:40;4.78;;;4.30;;
7693;SDS011;3889;48.162;11.510;2022-12-05T14:11:13;4.72;;;4.32;;
7693;SDS011;3889;48.162;11.510;2022-12-05T14:13:42;4.72;;;4.32;;
7693;SDS011;3889;48.162;11.510;2022-12-05T14:19:16;6.25;;;4.70;;
7693;SDS011;3889;48.162;11.510;2022-12-05T14:22:03;6.47;;;5.40;;
7693;SDS011;3889;48.162;11.510;2022-12-05T14:24:50;5.13;;;4.63;;
7693;SDS011;3889;48.162;11.510;2022-12-05T14:27:27;5.22;;;4.72;;
7693;SDS011;3889;48.162;11.510;2022-12-05T14:30:15;5.05;;;4.55;;
7693;SDS011;3889;48.162;11.510;2022-12-05T14:32:47;5.18;;;4.70;;
7693;SDS011;3889;48.162;11.510;2022-12-05T14:35:18;5.45;;;4.95;;
7693;SDS011;3889;48.162;11.510;2022-12-05T14:37:51;5.00;;;4.60;;
7693;SDS011;3889;48.162;11.510;2022-12-05T14:40:24;5.20;;;4.70;;
7693;SDS011;3889;48.162;11.510;2022-12-05T14:42:56;4.55;;;4.15;;
7693;SDS011;3889;48.162;11.510;2022-12-05T14:45:29;4.80;;;4.40;;
7693;SDS011;3889;48.162;11.510;2022-12-05T14:48:01;5.27;;;4.67;;
7693;SDS011;3889;48.162;11.510;2022-12-05T14:50:35;5.28;;;4.60;;
7693;SDS011;3889;48.162;11.510;2022-12-05T14:53:21;5.30;;;4.55;;
7693;SDS011;3889;48.162;11.510;2022-12-05T14:55:56;5.57;;;4.55;;
7693;SDS011;3889;48.162;11.510;2022-12-05T14:58:32;5.20;;;4.80;;
7693;SDS011;3889;48.162;11.510;2022-12-05T15:01:04;4.80;;;4.40;;
7693;SDS011;3889;48.162;11.510;2022-12-05T15:03:36;4.80;;;4.30;;
7693;SDS011;3889;48.162;11.510;2022-12-05T15:06:09;4.90;;;4.43;;
7693;SDS011;3889;48.162;11.510;2022-12-05T15:08:43;5.30;;;4.80;;
7693;SDS011;3889;48.162;11.510;2022-12-05T15:11:15;4.80;;;4.40;;
7693;SDS011;3889;48.162;11.510;2022-12-05T15:13:54;5.20;;;4.80;;
7693;SDS011;3889;48.162;11.510;2022-12-05T15:16:26;4.90;;;4.50;;
7693;SDS011;3889;48.162;11.510;2022-12-05T15:18:56;4.97;;;4.47;;
7693;SDS011;3889;48.162;11.510;2022-12-05T15:21:30;5.43;;;4.93;;
7693;SDS011;3889;48.162;11.510;2022-12-05T15:24:01;5.28;;;4.78;;
7693;SDS011;3889;48.162;11.510;2022-12-05T15:26:32;5.22;;;4.72;;